Aérodrome :
LOGIN :

S'inscrire | Disclaimer

   EN    FR    IT 

 










Légende :    VFR   VFR Marginal   IFR   IFR Intensif   IFR Très Intensif
Visi : 
Plafond : 
>= 8 km
>= 3000ft
5 à 8 km
1000 à 3000 ft
1500m à 5 km
500 à 1000 ft
800 à 1500m
200 à 500 ft
< 800m
< 200 ft
Symboles :   Orages  Brouillard  Fortes neiges  Fortes précipitations  Vent > 20 kt
SIGMETs :   Divers  Orages  Givrage  Turbulence  Onde Orograph.  Cendres Volcan.







- Altitude de l'aérodrome : 74 ft
- Code IATA : LRH
- Voir les cartes d'approche


LFBH - La Rochelle Ile de Ré

DERNIER METAR :
  • 280730Z AUTO 25020KT 9999 FEW039 BKN088 BKN110 09/07 Q0996 TEMPO 25030G55KT 1200 -TSRA SCT008 BKN020CB

METARs EXPIRÉS :
  • 280700Z AUTO 25020G35KT 9999 FEW036 SCT070 BKN086 09/06 Q0996 TEMPO 25030G55KT 1200 -TSRA SCT008 BKN020CB
  • 280630Z AUTO 25013KT 9999 -DZ FEW043 BKN054 BKN066 08/06 Q0997 TEMPO 25030G55KT 1200 -TSRA SCT008 BKN020CB
  • 280600Z AUTO 29021KT 9999 FEW016 BKN028 BKN041 07/06 Q0997 TEMPO 25030G55KT 1200 -TSRA SCT008 BKN020CB
  • 280530Z AUTO 28017KT 9999 -RA FEW018 SCT023 BKN031 07/07 Q0997 TEMPO 25030G55KT 1200 -TSRA SCT008 BKN020CB
  • 280500Z AUTO 27019KT 6000 -RA FEW013/// BKN027/// BKN035/// ///TCU 08/07 Q0997 TEMPO 25030G55KT 1200 -TSRA SCT008 BKN020CB
  • 280430Z AUTO 22011KT 190V250 9999 FEW017 SCT027 BKN036 09/06 Q0997 TEMPO 25030G55KT 1200 -TSRA SCT008 BKN020CB

TAF AMD TAF LFBH
Valide du 28 à 06h jusqu'au 01 à 06h UTC


280640Z 2806/0106 25015G35KT 9999 BKN040
TEMPO 2806/2815 27025G45KT 3000 SHRA SCT015 BKN020TCU
PROB40 2806/2814 25030G55KT 1200 -TSRA SCT008 BKN020CB
BECMG 2816/2818 28015G25KT
PROB40
TEMPO 2821/0103 4500 -SHRA BKN030TCU
BECMG 0103/0105 28015KT
ATIS : +33 5 46 00 13 92
Pas de NOTAMs connus pour ce terrain.
2 SIGMETs publiés pour la FIR Bordeaux (LFBB) :
 
Turbulence forte
LFBB SIGMET 2 VALID 280800/281200 LFPW
LFBB BORDEAUX FIR/UIR SEV TURB FCST NW OF LINE N4245 E00000 - N4400 E00245 SFC/FL080 STNR NC=
Turbulence forte
LFBB SIGMET 1 VALID 280400/280800 LFPW
LFBB BORDEAUX FIR/UIR SEV TURB FCST WI N4245 W00100 - N4300 W00145 - N4630 W00130 - N4630 W00045 SFC/FL060 STNR NC=



MET'MAP, la Météo Aéronautique d'un coup d'oeil ! - Copyright ORBIFLY Décembre 2007 - Disclaimer

ORBIFLY MET'MAP TEAM :

Programmation & Développement : Alexandra Zaïnal
Conception & Développement : Baudouin d'Aumeries
Co-Programmation & Développement : Marc-Olivier Méhu
Soutien technique & logistique : Manuel Goepfert

Contact : metmap@orbifly.com




SOURCES & CREDITS :

   NOAA